sensor_id;sensor_type;location;lat;lon;timestamp;pressure;altitude;pressure_sealevel;temperature;humidity
39949;BME280;29070;48.102;-1.652;2023-02-10T00:00:40;103544.94;;;8.14;69.31
39949;BME280;29070;48.102;-1.652;2023-02-10T00:05:40;103546.06;;;8.10;69.43
39949;BME280;29070;48.102;-1.652;2023-02-10T00:10:40;103536.69;;;8.07;69.69
39949;BME280;29070;48.102;-1.652;2023-02-10T00:15:41;103538.31;;;8.08;69.57
39949;BME280;29070;48.102;-1.652;2023-02-10T00:20:41;103532.28;;;8.08;69.65
39949;BME280;29070;48.102;-1.652;2023-02-10T00:25:42;103527.03;;;8.08;69.75
39949;BME280;29070;48.102;-1.652;2023-02-10T00:30:42;103541.09;;;8.07;69.98
39949;BME280;29070;48.102;-1.652;2023-02-10T00:35:42;103533.34;;;8.05;69.98
39949;BME280;29070;48.102;-1.652;2023-02-10T00:40:43;103530.09;;;8.01;69.97
39949;BME280;29070;48.102;-1.652;2023-02-10T00:45:43;103522.25;;;8.01;70.27
39949;BME280;29070;48.102;-1.652;2023-02-10T00:50:43;103525.91;;;7.99;69.90
39949;BME280;29070;48.102;-1.652;2023-02-10T00:55:44;103518.16;;;7.97;70.27
39949;BME280;29070;48.102;-1.652;2023-02-10T01:00:44;103527.78;;;7.97;69.83
39949;BME280;29070;48.102;-1.652;2023-02-10T01:05:44;103528.13;;;7.92;70.25
39949;BME280;29070;48.102;-1.652;2023-02-10T01:10:45;103528.13;;;7.92;70.33
39949;BME280;29070;48.102;-1.652;2023-02-10T01:15:46;103516.81;;;7.92;70.45
39949;BME280;29070;48.102;-1.652;2023-02-10T01:20:46;103516.94;;;7.90;70.24
39949;BME280;29070;48.102;-1.652;2023-02-10T01:25:46;103513.38;;;7.91;70.61
39949;BME280;29070;48.102;-1.652;2023-02-10T01:30:47;103512.84;;;7.86;70.64
39949;BME280;29070;48.102;-1.652;2023-02-10T01:35:47;103518.00;;;7.88;70.46
39949;BME280;29070;48.102;-1.652;2023-02-10T01:40:48;103516.19;;;7.88;70.69
39949;BME280;29070;48.102;-1.652;2023-02-10T01:45:49;103510.34;;;7.85;70.53
39949;BME280;29070;48.102;-1.652;2023-02-10T01:50:57;103506.19;;;7.82;70.61
39949;BME280;29070;48.102;-1.652;2023-02-10T01:56:01;103503.34;;;7.85;70.71
39949;BME280;29070;48.102;-1.652;2023-02-10T02:01:02;103510.44;;;7.83;70.82
39949;BME280;29070;48.102;-1.652;2023-02-10T02:06:03;103513.31;;;7.80;70.67
39949;BME280;29070;48.102;-1.652;2023-02-10T02:27:04;103510.78;;;7.78;71.17
39949;BME280;29070;48.102;-1.652;2023-02-10T02:32:19;103503.88;;;7.77;71.13
39949;BME280;29070;48.102;-1.652;2023-02-10T02:42:27;103504.84;;;7.76;71.04
39949;BME280;29070;48.102;-1.652;2023-02-10T02:47:49;103501.59;;;7.73;71.37
39949;BME280;29070;48.102;-1.652;2023-02-10T03:03:25;103485.91;;;7.73;71.53
39949;BME280;29070;48.102;-1.652;2023-02-10T03:08:27;103491.16;;;7.73;71.66
39949;BME280;29070;48.102;-1.652;2023-02-10T03:13:28;103485.16;;;7.71;71.46
39949;BME280;29070;48.102;-1.652;2023-02-10T03:18:28;103489.47;;;7.72;71.52
39949;BME280;29070;48.102;-1.652;2023-02-10T03:23:29;103486.84;;;7.72;71.42
39949;BME280;29070;48.102;-1.652;2023-02-10T03:28:29;103484.44;;;7.69;71.79
39949;BME280;29070;48.102;-1.652;2023-02-10T03:33:30;103486.31;;;7.67;71.35
39949;BME280;29070;48.102;-1.652;2023-02-10T03:38:30;103488.84;;;7.68;71.58
39949;BME280;29070;48.102;-1.652;2023-02-10T03:43:31;103486.31;;;7.67;71.77
39949;BME280;29070;48.102;-1.652;2023-02-10T03:48:31;103491.75;;;7.63;71.53
39949;BME280;29070;48.102;-1.652;2023-02-10T03:53:32;103492.72;;;7.62;71.63
39949;BME280;29070;48.102;-1.652;2023-02-10T03:58:33;103496.16;;;7.63;71.63
39949;BME280;29070;48.102;-1.652;2023-02-10T04:03:33;103494.63;;;7.60;72.02
39949;BME280;29070;48.102;-1.652;2023-02-10T04:08:34;103493.88;;;7.58;71.75
39949;BME280;29070;48.102;-1.652;2023-02-10T04:13:36;103492.19;;;7.57;71.70
39949;BME280;29070;48.102;-1.652;2023-02-10T04:18:37;103499.13;;;7.58;71.86
39949;BME280;29070;48.102;-1.652;2023-02-10T04:23:38;103504.34;;;7.58;71.99
39949;BME280;29070;48.102;-1.652;2023-02-10T04:28:39;103506.19;;;7.56;71.99
39949;BME280;29070;48.102;-1.652;2023-02-10T04:33:39;103505.38;;;7.56;72.16
39949;BME280;29070;48.102;-1.652;2023-02-10T04:38:40;103508.09;;;7.54;72.13
39949;BME280;29070;48.102;-1.652;2023-02-10T04:43:40;103505.81;;;7.50;72.24
39949;BME280;29070;48.102;-1.652;2023-02-10T04:48:40;103508.31;;;7.51;72.00
39949;BME280;29070;48.102;-1.652;2023-02-10T04:53:41;103511.03;;;7.50;72.22
39949;BME280;29070;48.102;-1.652;2023-02-10T04:58:43;103519.91;;;7.47;71.97
39949;BME280;29070;48.102;-1.652;2023-02-10T05:03:43;103527.03;;;7.45;72.28
39949;BME280;29070;48.102;-1.652;2023-02-10T05:08:44;103525.47;;;7.42;72.07
39949;BME280;29070;48.102;-1.652;2023-02-10T05:13:44;103533.41;;;7.41;72.23
39949;BME280;29070;48.102;-1.652;2023-02-10T05:18:45;103544.06;;;7.38;72.24
39949;BME280;29070;48.102;-1.652;2023-02-10T05:23:45;103538.09;;;7.36;72.43
39949;BME280;29070;48.102;-1.652;2023-02-10T05:28:46;103544.25;;;7.35;72.43
39949;BME280;29070;48.102;-1.652;2023-02-10T05:33:46;103539.88;;;7.35;72.71
39949;BME280;29070;48.102;-1.652;2023-02-10T05:38:46;103540.00;;;7.34;72.39
39949;BME280;29070;48.102;-1.652;2023-02-10T05:44:05;103542.78;;;7.31;72.42
39949;BME280;29070;48.102;-1.652;2023-02-10T05:49:06;103543.72;;;7.30;72.46
39949;BME280;29070;48.102;-1.652;2023-02-10T05:54:07;103550.72;;;7.29;72.41
39949;BME280;29070;48.102;-1.652;2023-02-10T05:59:09;103557.00;;;7.27;72.74
39949;BME280;29070;48.102;-1.652;2023-02-10T06:04:11;103565.03;;;7.23;72.95
39949;BME280;29070;48.102;-1.652;2023-02-10T06:09:11;103573.63;;;7.25;72.97
39949;BME280;29070;48.102;-1.652;2023-02-10T06:14:12;103569.53;;;7.21;72.92
39949;BME280;29070;48.102;-1.652;2023-02-10T06:19:12;103574.75;;;7.21;73.04
39949;BME280;29070;48.102;-1.652;2023-02-10T06:24:13;103572.16;;;7.21;72.93
39949;BME280;29070;48.102;-1.652;2023-02-10T06:29:13;103567.84;;;7.20;72.76
39949;BME280;29070;48.102;-1.652;2023-02-10T06:34:13;103583.53;;;7.20;73.06
39949;BME280;29070;48.102;-1.652;2023-02-10T06:39:14;103582.59;;;7.21;73.10
39949;BME280;29070;48.102;-1.652;2023-02-10T06:44:14;103587.81;;;7.21;73.11
39949;BME280;29070;48.102;-1.652;2023-02-10T06:49:15;103582.69;;;7.20;73.41
39949;BME280;29070;48.102;-1.652;2023-02-10T06:54:15;103587.09;;;7.19;73.29
39949;BME280;29070;48.102;-1.652;2023-02-10T06:59:16;103594.06;;;7.19;73.42
39949;BME280;29070;48.102;-1.652;2023-02-10T07:04:17;103587.28;;;7.16;73.08
39949;BME280;29070;48.102;-1.652;2023-02-10T07:09:17;103596.81;;;7.17;73.21
39949;BME280;29070;48.102;-1.652;2023-02-10T07:14:17;103599.44;;;7.17;73.55
39949;BME280;29070;48.102;-1.652;2023-02-10T07:19:18;103602.03;;;7.17;73.44
39949;BME280;29070;48.102;-1.652;2023-02-10T07:24:18;103602.97;;;7.16;73.35
39949;BME280;29070;48.102;-1.652;2023-02-10T07:29:18;103604.75;;;7.16;73.40
39949;BME280;29070;48.102;-1.652;2023-02-10T07:34:19;103608.19;;;7.16;73.34
39949;BME280;29070;48.102;-1.652;2023-02-10T07:39:21;103612.59;;;7.16;73.72
39949;BME280;29070;48.102;-1.652;2023-02-10T07:44:22;103631.59;;;7.18;73.65
39949;BME280;29070;48.102;-1.652;2023-02-10T07:49:22;103625.56;;;7.17;73.70
39949;BME280;29070;48.102;-1.652;2023-02-10T07:54:24;103634.94;;;7.20;73.76
39949;BME280;29070;48.102;-1.652;2023-02-10T07:59:24;103642.69;;;7.21;73.73
39949;BME280;29070;48.102;-1.652;2023-02-10T08:04:25;103639.97;;;7.23;74.09
39949;BME280;29070;48.102;-1.652;2023-02-10T08:09:25;103644.06;;;7.27;74.18
39949;BME280;29070;48.102;-1.652;2023-02-10T08:14:26;103649.19;;;7.29;74.13
39949;BME280;29070;48.102;-1.652;2023-02-10T08:19:26;103648.78;;;7.35;74.19
39949;BME280;29070;48.102;-1.652;2023-02-10T08:24:27;103653.59;;;7.41;74.36
39949;BME280;29070;48.102;-1.652;2023-02-10T08:29:27;103661.13;;;7.45;74.16
39949;BME280;29070;48.102;-1.652;2023-02-10T08:34:27;103678.22;;;7.51;73.90
39949;BME280;29070;48.102;-1.652;2023-02-10T08:39:29;103663.03;;;7.56;74.32
39949;BME280;29070;48.102;-1.652;2023-02-10T08:44:30;103670.47;;;7.62;74.54
39949;BME280;29070;48.102;-1.652;2023-02-10T08:49:30;103671.00;;;7.68;74.22
39949;BME280;29070;48.102;-1.652;2023-02-10T08:54:30;103669.13;;;7.70;74.08
39949;BME280;29070;48.102;-1.652;2023-02-10T08:59:31;103669.75;;;7.73;74.13
39949;BME280;29070;48.102;-1.652;2023-02-10T09:04:31;103680.41;;;7.83;74.43
39949;BME280;29070;48.102;-1.652;2023-02-10T09:09:38;103681.69;;;7.90;74.49
39949;BME280;29070;48.102;-1.652;2023-02-10T09:14:39;103682.94;;;7.97;74.28
39949;BME280;29070;48.102;-1.652;2023-02-10T09:19:40;103693.19;;;8.00;74.46
39949;BME280;29070;48.102;-1.652;2023-02-10T09:24:41;103686.81;;;8.05;74.21
39949;BME280;29070;48.102;-1.652;2023-02-10T09:29:47;103682.63;;;8.15;74.28
39949;BME280;29070;48.102;-1.652;2023-02-10T09:34:47;103680.44;;;8.21;74.38
39949;BME280;29070;48.102;-1.652;2023-02-10T09:39:48;103682.94;;;8.36;74.32
39949;BME280;29070;48.102;-1.652;2023-02-10T09:44:52;103675.53;;;8.43;74.67
39949;BME280;29070;48.102;-1.652;2023-02-10T09:55:50;103674.28;;;8.72;74.39
39949;BME280;29070;48.102;-1.652;2023-02-10T10:00:58;103683.16;;;8.83;74.17
39949;BME280;29070;48.102;-1.652;2023-02-10T10:06:14;103685.69;;;8.84;74.03
39949;BME280;29070;48.102;-1.652;2023-02-10T10:11:40;103681.34;;;8.96;74.04
39949;BME280;29070;48.102;-1.652;2023-02-10T10:38:28;103703.72;;;9.48;73.37
39949;BME280;29070;48.102;-1.652;2023-02-10T10:43:31;103712.13;;;9.65;73.27
39949;BME280;29070;48.102;-1.652;2023-02-10T10:48:33;103701.44;;;9.79;73.17
39949;BME280;29070;48.102;-1.652;2023-02-10T10:53:51;103703.84;;;9.93;72.74
39949;BME280;29070;48.102;-1.652;2023-02-10T10:58:52;103710.06;;;10.04;72.33
39949;BME280;29070;48.102;-1.652;2023-02-10T11:04:02;103705.41;;;10.07;72.45
39949;BME280;29070;48.102;-1.652;2023-02-10T11:09:06;103701.97;;;10.18;72.42
39949;BME280;29070;48.102;-1.652;2023-02-10T11:14:21;103707.81;;;10.22;72.32
39949;BME280;29070;48.102;-1.652;2023-02-10T11:19:28;103697.00;;;10.38;72.43
39949;BME280;29070;48.102;-1.652;2023-02-10T11:24:32;103702.72;;;10.43;71.95
39949;BME280;29070;48.102;-1.652;2023-02-10T11:29:35;103696.84;;;10.62;71.96
39949;BME280;29070;48.102;-1.652;2023-02-10T11:34:44;103692.88;;;10.79;71.83
39949;BME280;29070;48.102;-1.652;2023-02-10T11:39:49;103689.16;;;10.81;71.44
39949;BME280;29070;48.102;-1.652;2023-02-10T11:45:50;103689.00;;;10.94;71.65
39949;BME280;29070;48.102;-1.652;2023-02-10T11:50:19;103678.41;;;11.17;70.65
39949;BME280;29070;48.102;-1.652;2023-02-10T11:55:21;103673.38;;;11.25;71.13
39949;BME280;29070;48.102;-1.652;2023-02-10T12:00:34;103676.66;;;11.38;70.95
39949;BME280;29070;48.102;-1.652;2023-02-10T12:10:48;103662.53;;;11.60;70.45
39949;BME280;29070;48.102;-1.652;2023-02-10T12:15:57;103668.25;;;11.66;70.39
39949;BME280;29070;48.102;-1.652;2023-02-10T12:37:08;103655.06;;;11.87;69.72
39949;BME280;29070;48.102;-1.652;2023-02-10T12:53:20;103629.94;;;11.94;68.84
39949;BME280;29070;48.102;-1.652;2023-02-10T12:58:26;103625.25;;;12.07;69.02
39949;BME280;29070;48.102;-1.652;2023-02-10T13:03:32;103629.44;;;12.19;68.79
39949;BME280;29070;48.102;-1.652;2023-02-10T13:08:43;103630.44;;;12.28;68.32
39949;BME280;29070;48.102;-1.652;2023-02-10T13:13:47;103626.97;;;12.18;67.99
39949;BME280;29070;48.102;-1.652;2023-02-10T13:25:10;103617.16;;;12.30;67.19
39949;BME280;29070;48.102;-1.652;2023-02-10T13:35:23;103605.97;;;12.47;67.28
39949;BME280;29070;48.102;-1.652;2023-02-10T13:40:59;103598.19;;;12.55;66.81
39949;BME280;29070;48.102;-1.652;2023-02-10T13:45:54;103593.50;;;12.78;66.98
39949;BME280;29070;48.102;-1.652;2023-02-10T13:51:03;103588.34;;;12.96;66.19
39949;BME280;29070;48.102;-1.652;2023-02-10T13:56:25;103587.53;;;12.96;65.01
39949;BME280;29070;48.102;-1.652;2023-02-10T14:01:49;103590.44;;;13.03;64.65
39949;BME280;29070;48.102;-1.652;2023-02-10T14:07:00;103585.72;;;12.96;65.39
39949;BME280;29070;48.102;-1.652;2023-02-10T14:12:03;103583.81;;;12.79;65.14
39949;BME280;29070;48.102;-1.652;2023-02-10T14:17:06;103586.31;;;12.81;65.20
39949;BME280;29070;48.102;-1.652;2023-02-10T14:22:26;103582.28;;;12.67;64.27
39949;BME280;29070;48.102;-1.652;2023-02-10T14:27:30;103586.03;;;12.74;64.66
39949;BME280;29070;48.102;-1.652;2023-02-10T14:32:31;103589.91;;;12.70;64.48
39949;BME280;29070;48.102;-1.652;2023-02-10T14:37:31;103585.03;;;12.75;64.34
39949;BME280;29070;48.102;-1.652;2023-02-10T14:42:32;103572.44;;;12.69;64.12
39949;BME280;29070;48.102;-1.652;2023-02-10T14:47:35;103583.38;;;12.64;63.81
39949;BME280;29070;48.102;-1.652;2023-02-10T14:52:46;103581.28;;;12.68;63.64
39949;BME280;29070;48.102;-1.652;2023-02-10T14:57:46;103584.63;;;12.80;64.18
39949;BME280;29070;48.102;-1.652;2023-02-10T15:02:50;103575.47;;;12.74;63.40
39949;BME280;29070;48.102;-1.652;2023-02-10T15:07:55;103569.94;;;12.77;63.64
39949;BME280;29070;48.102;-1.652;2023-02-10T15:12:57;103563.69;;;12.78;63.41
39949;BME280;29070;48.102;-1.652;2023-02-10T15:18:08;103561.88;;;12.78;62.77
39949;BME280;29070;48.102;-1.652;2023-02-10T15:23:15;103555.78;;;12.78;63.13
39949;BME280;29070;48.102;-1.652;2023-02-10T15:28:19;103551.31;;;12.78;63.04
39949;BME280;29070;48.102;-1.652;2023-02-10T15:33:23;103553.56;;;12.83;62.67
39949;BME280;29070;48.102;-1.652;2023-02-10T15:38:24;103550.38;;;12.80;62.67
39949;BME280;29070;48.102;-1.652;2023-02-10T15:43:30;103558.41;;;12.78;62.50
39949;BME280;29070;48.102;-1.652;2023-02-10T15:48:31;103556.06;;;12.65;62.59
39949;BME280;29070;48.102;-1.652;2023-02-10T15:53:32;103559.41;;;12.57;62.60
39949;BME280;29070;48.102;-1.652;2023-02-10T15:58:32;103560.75;;;12.52;62.75
39949;BME280;29070;48.102;-1.652;2023-02-10T16:03:32;103550.50;;;12.58;62.61
39949;BME280;29070;48.102;-1.652;2023-02-10T16:08:33;103548.00;;;12.47;62.74
39949;BME280;29070;48.102;-1.652;2023-02-10T16:13:33;103557.84;;;12.45;62.64
39949;BME280;29070;48.102;-1.652;2023-02-10T16:18:34;103563.41;;;12.32;62.66
39949;BME280;29070;48.102;-1.652;2023-02-10T16:23:34;103564.63;;;12.28;62.58
39949;BME280;29070;48.102;-1.652;2023-02-10T16:28:34;103554.63;;;12.32;62.72
39949;BME280;29070;48.102;-1.652;2023-02-10T16:33:35;103553.94;;;12.20;62.87
39949;BME280;29070;48.102;-1.652;2023-02-10T16:38:36;103569.19;;;12.16;62.91
39949;BME280;29070;48.102;-1.652;2023-02-10T16:43:38;103561.28;;;12.16;62.82
39949;BME280;29070;48.102;-1.652;2023-02-10T16:48:39;103574.72;;;12.13;62.93
39949;BME280;29070;48.102;-1.652;2023-02-10T16:53:39;103569.56;;;12.12;62.69
39949;BME280;29070;48.102;-1.652;2023-02-10T16:58:40;103577.88;;;12.07;62.75
39949;BME280;29070;48.102;-1.652;2023-02-10T17:03:40;103578.97;;;12.05;62.91
39949;BME280;29070;48.102;-1.652;2023-02-10T17:08:40;103575.09;;;11.99;63.12
39949;BME280;29070;48.102;-1.652;2023-02-10T17:13:41;103584.47;;;11.92;63.21
39949;BME280;29070;48.102;-1.652;2023-02-10T17:18:41;103581.50;;;11.85;63.16
39949;BME280;29070;48.102;-1.652;2023-02-10T17:23:42;103581.91;;;11.80;63.24
39949;BME280;29070;48.102;-1.652;2023-02-10T17:28:42;103584.63;;;11.69;63.52
39949;BME280;29070;48.102;-1.652;2023-02-10T17:33:43;103589.44;;;11.64;63.37
39949;BME280;29070;48.102;-1.652;2023-02-10T17:38:48;103590.56;;;11.61;63.59
39949;BME280;29070;48.102;-1.652;2023-02-10T17:43:50;103583.75;;;11.59;63.41
39949;BME280;29070;48.102;-1.652;2023-02-10T17:48:52;103598.38;;;11.52;63.53
39949;BME280;29070;48.102;-1.652;2023-02-10T17:53:52;103606.34;;;11.40;63.54
39949;BME280;29070;48.102;-1.652;2023-02-10T17:58:53;103599.59;;;11.26;63.53
39949;BME280;29070;48.102;-1.652;2023-02-10T18:03:54;103604.22;;;11.13;63.69
39949;BME280;29070;48.102;-1.652;2023-02-10T18:08:56;103609.69;;;11.00;63.83
39949;BME280;29070;48.102;-1.652;2023-02-10T18:13:58;103610.44;;;10.91;63.84
39949;BME280;29070;48.102;-1.652;2023-02-10T18:18:58;103618.81;;;10.85;64.12
39949;BME280;29070;48.102;-1.652;2023-02-10T18:23:59;103611.44;;;10.79;64.31
39949;BME280;29070;48.102;-1.652;2023-02-10T18:29:01;103619.09;;;10.71;64.35
39949;BME280;29070;48.102;-1.652;2023-02-10T18:34:01;103617.69;;;10.66;64.68
39949;BME280;29070;48.102;-1.652;2023-02-10T18:39:02;103609.34;;;10.61;64.91
39949;BME280;29070;48.102;-1.652;2023-02-10T18:44:03;103608.75;;;10.58;65.12
39949;BME280;29070;48.102;-1.652;2023-02-10T18:49:04;103627.25;;;10.56;65.00
39949;BME280;29070;48.102;-1.652;2023-02-10T18:54:04;103620.59;;;10.52;65.26
39949;BME280;29070;48.102;-1.652;2023-02-10T18:59:04;103614.84;;;10.47;65.38
39949;BME280;29070;48.102;-1.652;2023-02-10T19:04:05;103616.19;;;10.41;65.24
39949;BME280;29070;48.102;-1.652;2023-02-10T19:09:05;103620.38;;;10.33;65.46
39949;BME280;29070;48.102;-1.652;2023-02-10T19:14:06;103611.28;;;10.25;65.39
39949;BME280;29070;48.102;-1.652;2023-02-10T19:19:07;103610.34;;;10.15;65.54
39949;BME280;29070;48.102;-1.652;2023-02-10T19:24:12;103599.63;;;10.07;65.53
39949;BME280;29070;48.102;-1.652;2023-02-10T19:29:13;103598.53;;;9.98;65.71
39949;BME280;29070;48.102;-1.652;2023-02-10T19:34:14;103609.38;;;9.93;65.77
39949;BME280;29070;48.102;-1.652;2023-02-10T19:39:14;103590.53;;;9.88;66.02
39949;BME280;29070;48.102;-1.652;2023-02-10T19:44:18;103598.91;;;9.82;66.37
39949;BME280;29070;48.102;-1.652;2023-02-10T19:49:19;103600.56;;;9.72;66.49
39949;BME280;29070;48.102;-1.652;2023-02-10T19:54:19;103597.66;;;9.64;66.37
39949;BME280;29070;48.102;-1.652;2023-02-10T19:59:19;103588.84;;;9.53;66.29
39949;BME280;29070;48.102;-1.652;2023-02-10T20:04:20;103580.00;;;9.43;66.71
39949;BME280;29070;48.102;-1.652;2023-02-10T20:09:20;103575.69;;;9.31;66.80
39949;BME280;29070;48.102;-1.652;2023-02-10T20:14:20;103586.28;;;9.18;66.68
39949;BME280;29070;48.102;-1.652;2023-02-10T20:19:21;103591.00;;;9.02;66.70
39949;BME280;29070;48.102;-1.652;2023-02-10T20:24:21;103588.78;;;8.84;66.87
39949;BME280;29070;48.102;-1.652;2023-02-10T20:29:22;103582.97;;;8.68;66.92
39949;BME280;29070;48.102;-1.652;2023-02-10T20:34:22;103584.69;;;8.56;66.89
39949;BME280;29070;48.102;-1.652;2023-02-10T20:39:22;103580.03;;;8.35;67.01
39949;BME280;29070;48.102;-1.652;2023-02-10T20:44:23;103574.19;;;8.19;66.68
39949;BME280;29070;48.102;-1.652;2023-02-10T20:49:23;103586.28;;;8.09;67.23
39949;BME280;29070;48.102;-1.652;2023-02-10T20:54:24;103584.16;;;8.01;67.60
39949;BME280;29070;48.102;-1.652;2023-02-10T20:59:24;103582.72;;;7.97;67.86
39949;BME280;29070;48.102;-1.652;2023-02-10T21:04:25;103578.97;;;7.88;67.64
39949;BME280;29070;48.102;-1.652;2023-02-10T21:09:25;103576.06;;;7.80;68.08
39949;BME280;29070;48.102;-1.652;2023-02-10T21:14:31;103576.47;;;7.74;68.03
39949;BME280;29070;48.102;-1.652;2023-02-10T21:19:32;103571.88;;;7.64;68.22
39949;BME280;29070;48.102;-1.652;2023-02-10T21:24:32;103570.19;;;7.51;68.34
39949;BME280;29070;48.102;-1.652;2023-02-10T21:29:34;103578.75;;;7.40;68.09
39949;BME280;29070;48.102;-1.652;2023-02-10T21:34:35;103576.97;;;7.28;68.55
39949;BME280;29070;48.102;-1.652;2023-02-10T21:39:35;103585.03;;;7.24;68.81
39949;BME280;29070;48.102;-1.652;2023-02-10T21:44:35;103583.34;;;7.23;68.88
39949;BME280;29070;48.102;-1.652;2023-02-10T21:49:36;103576.84;;;7.16;69.00
39949;BME280;29070;48.102;-1.652;2023-02-10T21:54:38;103571.19;;;7.10;69.48
39949;BME280;29070;48.102;-1.652;2023-02-10T21:59:38;103582.88;;;7.04;68.89
39949;BME280;29070;48.102;-1.652;2023-02-10T22:04:39;103589.63;;;6.94;69.19
39949;BME280;29070;48.102;-1.652;2023-02-10T22:09:39;103587.63;;;6.84;69.25
39949;BME280;29070;48.102;-1.652;2023-02-10T22:14:40;103581.03;;;6.79;69.53
39949;BME280;29070;48.102;-1.652;2023-02-10T22:19:40;103574.53;;;6.72;69.67
39949;BME280;29070;48.102;-1.652;2023-02-10T22:24:41;103576.91;;;6.62;69.67
39949;BME280;29070;48.102;-1.652;2023-02-10T22:29:41;103578.41;;;6.52;69.53
39949;BME280;29070;48.102;-1.652;2023-02-10T22:34:44;103572.19;;;6.40;69.52
39949;BME280;29070;48.102;-1.652;2023-02-10T22:39:45;103577.97;;;6.30;69.79
39949;BME280;29070;48.102;-1.652;2023-02-10T22:44:45;103569.91;;;6.21;69.89
39949;BME280;29070;48.102;-1.652;2023-02-10T22:49:49;103573.91;;;6.12;70.07
39949;BME280;29070;48.102;-1.652;2023-02-10T22:54:50;103566.94;;;5.98;69.95
39949;BME280;29070;48.102;-1.652;2023-02-10T22:59:52;103579.03;;;5.85;69.85
39949;BME280;29070;48.102;-1.652;2023-02-10T23:04:53;103576.88;;;5.77;70.06
39949;BME280;29070;48.102;-1.652;2023-02-10T23:09:53;103581.41;;;5.73;70.35
39949;BME280;29070;48.102;-1.652;2023-02-10T23:14:54;103577.59;;;5.65;70.24
39949;BME280;29070;48.102;-1.652;2023-02-10T23:19:54;103579.53;;;5.61;70.37
39949;BME280;29070;48.102;-1.652;2023-02-10T23:24:55;103584.75;;;5.61;70.65
39949;BME280;29070;48.102;-1.652;2023-02-10T23:29:56;103575.06;;;5.63;71.15
39949;BME280;29070;48.102;-1.652;2023-02-10T23:34:57;103575.63;;;5.68;70.99
39949;BME280;29070;48.102;-1.652;2023-02-10T23:39:57;103575.47;;;5.71;71.46
39949;BME280;29070;48.102;-1.652;2023-02-10T23:44:57;103573.78;;;5.70;71.69
39949;BME280;29070;48.102;-1.652;2023-02-10T23:49:58;103567.81;;;5.68;71.60
39949;BME280;29070;48.102;-1.652;2023-02-10T23:54:58;103566.91;;;5.69;71.70
39949;BME280;29070;48.102;-1.652;2023-02-10T23:59:58;103561.53;;;5.72;71.94
